Fort Smith Regional Airport
KFSM : now visible

Airfield :











YOU CAN JOIN US ON...

 
LOGIN :

Register | Disclaimer

   EN    FR    IT 

 









Legend :    VFR   Marginal VFR   IFR   Intensive IFR   Very Intensive IFR
Visi :
Ceiling :
>= 8 km
>= 3000ft
5 to 8 km
1000 to 3000 ft
1500m to 5 km
500 to 1000 ft
800 to 1500m
200 to 500 ft
< 800m
< 200 ft
Symbols :   Thunderstorms  Fog  Heavy snow  Heavy precipitations  Wind > 20 kt






- Airport Elevation : 469 ft
- IATA code : FSM


KFSM - Fort Smith Regional

CURRENT METAR :
  • 130553Z 09005KT 10SM CLR 24/23 A2997 RMK AO2 SLP144 T02390228 10294 20239 403000222 50001

EXPIRED METARs :
  • 130453Z 06004KT 10SM CLR 24/23 A2998 RMK AO2 SLP146 T02390228
  • 130353Z 08004KT 10SM CLR 25/23 A2998 RMK AO2 SLP148 T02500228

TAF KFSM
Valid from the 13 at 06:00 until the 14 at 06:00 UTC


130520Z 1306/1406 06004KT P6SM SKC
FM131400 VRB03KT P6SM VCTS BKN050CB
TEMPO 1314/1318 2SM TSRA BKN035CB
FM131800 13006KT P6SM SCT040 BKN250
FM140000 00000KT P6SM SCT250
KZME FIR / North America



MET'MAP, your aeronautical weather chart ! - Copyright ORBIFLY December 2007 - Disclaimer

ORBIFLY MET'MAP TEAM :

Programming & Development : Alexandra Zaïnal
Concept & original design : Baudouin d'Aumeries
Assistance for programming : Marc-Olivier Méhu
Technical & hardware support : Manuel Goepfert

Contact : metmap@orbifly.com




SOURCES & CREDITS :

   NOAA       Earth
Advisory